New Castle, Indiana
Current Conditions -  °F | °C
As of 4:53 PM on Sunday 21 Dec 2014 (Local Time) from KMIE Reporting Station
Haze Haze  
Wind Chill: 27°   Ceiling: Unl
Heat Index: 34°   Visibility: 5mi
Dew Point: 27°   Wind: 8mph
Humidity: 75%   Direction: 140°SE
Pressure: 30.15"   Gusts: NA
Location:  39.93°N, 85.37°W
Report Text: KMIE 212153Z 14007KT 5SM HZ CLR 01/M03 A3015 RMK AO2 SLP219 T00111028
Loading
Personal Weather Stations






























Interactive Weather Map New forecast layout! Learn more

10-Day Weather Forecast

Advertisements
Track Severe Weather on mobile